| time (UTC) | temp F | wind direction | speed MPH | gust MPH | rain 1hr in | rain 24hr in | rain mn in | humidity % | barometer mb |
| 20260507052016 | 51 | 0.0 | 2.0 | 0.00 | 0.61 | 0.00 | 92 | 1012.2 | |
| 20260507051016 | 51 | 0.0 | 2.0 | 0.00 | 0.61 | 0.00 | 92 | 1012.1 | |
| 20260507050016 | 51 | 0.0 | 0.0 | 0.00 | 0.62 | 0.00 | 92 | 1011.9 | |
| 20260507045016 | 50 | 0.0 | 0.0 | 0.00 | 0.63 | 0.00 | 93 | 1011.7 | |
| 20260507044016 | 50 | 0.0 | 0.0 | 0.00 | 0.63 | 0.00 | 92 | 1011.7 | |
| 20260507043016 | 50 | 0.0 | 1.0 | 0.00 | 0.65 | 0.00 | 92 | 1011.6 | |
| 20260507042016 | 50 | 0.0 | 0.0 | 0.00 | 0.66 | 0.00 | 92 | 1011.4 | |
| 20260507041016 | 50 | 0.0 | 0.0 | 0.00 | 0.67 | 0.00 | 92 | 1011.3 | |
| 20260507040156 | 50 | 0.0 | 0.0 | 0.00 | 0.68 | 0.00 | 92 | 1011.3 | |
| 20260507035016 | 51 | 0.0 | 0.0 | 0.00 | 0.68 | 0.00 | 93 | 1011.2 | |
| 20260507034016 | 51 | 0.0 | 0.0 | 0.00 | 0.69 | 0.00 | 93 | 1011.2 | |
| 20260507033016 | 51 | 0.0 | 2.0 | 0.00 | 0.70 | 0.00 | 94 | 1011.1 | |
| 20260507032016 | 51 | 0.0 | 0.0 | 0.00 | 0.70 | 0.00 | 94 | 1011.0 | |
| 20260507031016 | 51 | 0.0 | 0.0 | 0.00 | 0.70 | 0.00 | 94 | 1011.1 | |
| 20260507030036 | 51 | 0.0 | 0.0 | 0.00 | 0.70 | 0.00 | 94 | 1011.2 | |
| 20260507025016 | 51 | 0.0 | 2.0 | 0.00 | 0.70 | 0.00 | 94 | 1011.2 | |
| 20260507024016 | 51 | 0.0 | 1.0 | 0.00 | 0.70 | 0.00 | 94 | 1011.2 | |
| 20260507023015 | 51 | 0.0 | 2.0 | 0.00 | 0.70 | 0.00 | 94 | 1011.2 | |
| 20260507022016 | 51 | 0.0 | 2.0 | 0.00 | 0.70 | 0.00 | 94 | 1011.2 | |
| 20260507021016 | 51 | 0.0 | 0.0 | 0.00 | 0.70 | 0.00 | 94 | 1011.2 | |
| 20260507020016 | 51 | 0.0 | 0.0 | 0.00 | 0.70 | 0.00 | 94 | 1011.2 | |
| 20260507015016 | 52 | 0.0 | 0.0 | 0.00 | 0.70 | 0.00 | 94 | 1011.2 | |
| 20260507014016 | 52 | 0.0 | 3.0 | 0.00 | 0.70 | 0.00 | 93 | 1011.2 | |
| 20260507013035 | 52 | 0.0 | 1.0 | 0.00 | 0.70 | 0.00 | 93 | 1011.2 | |
| 20260507012036 | 52 | 0.0 | 0.0 | 0.00 | 0.71 | 0.00 | 93 | 1011.2 | |
| 20260507011016 | 52 | 0.0 | 0.0 | 0.00 | 0.71 | 0.00 | 94 | 1011.2 | |
| 20260507010016 | 52 | 0.0 | 0.0 | 0.00 | 0.72 | 0.00 | 94 | 1011.2 | |
| 20260507005036 | 52 | 0.0 | 0.0 | 0.00 | 0.73 | 0.00 | 94 | 1011.1 | |
| 20260507004035 | 52 | 0.0 | 0.0 | 0.00 | 0.74 | 0.00 | 94 | 1011.1 | |
| 20260507003015 | 52 | 0.0 | 0.0 | 0.00 | 0.74 | 0.00 | 94 | 1011.1 | |
| 20260507002016 | 52 | 0.0 | 0.0 | 0.00 | 0.74 | 0.00 | 94 | 1010.9 | |
| 20260507001016 | 52 | 0.0 | 3.0 | 0.00 | 0.74 | 0.00 | 95 | 1010.9 | |
| 20260507000015 | 51 | 0.0 | 4.0 | 0.00 | 0.74 | 0.00 | 95 | 1010.8 | |
| 20260506235016 | 51 | 0.0 | 0.0 | 0.00 | 0.74 | 0.00 | 94 | 1010.8 | |
| 20260506234036 | 51 | 0.0 | 0.0 | 0.00 | 0.74 | 0.00 | 94 | 1010.7 | |
| 20260506233016 | 51 | 0.0 | 0.0 | 0.00 | 0.74 | 0.00 | 94 | 1010.6 | |
| 20260506232016 | 52 | 0.0 | 2.0 | 0.00 | 0.74 | 0.00 | 94 | 1010.6 | |
| 20260506231016 | 52 | 0.0 | 0.0 | 0.00 | 0.74 | 0.00 | 94 | 1010.5 | |
| 20260506230015 | 52 | 0.0 | 2.0 | 0.00 | 0.74 | 0.00 | 93 | 1010.4 | |
| 20260506225015 | 52 | 0.0 | 0.0 | 0.00 | 0.74 | 0.00 | 93 | 1010.4 | |
| 20260506224016 | 53 | 0.0 | 1.0 | 0.00 | 0.74 | 0.00 | 93 | 1010.3 | |
| 20260506223015 | 53 | 0.0 | 3.0 | 0.00 | 0.74 | 0.00 | 93 | 1010.3 | |
| 20260506222015 | 53 | 0.0 | 3.0 | 0.01 | 0.74 | 0.00 | 93 | 1010.3 | |
| 20260506221016 | 54 | 270 | 1.0 | 4.0 | 0.02 | 0.74 | 0.00 | 92 | 1010.4 |
| 20260506220015 | 54 | 247 | 2.0 | 4.0 | 0.02 | 0.74 | 0.00 | 92 | 1010.5 |
| 20260506215017 | 55 | 0.0 | 1.0 | 0.02 | 0.74 | 0.74 | 91 | 1010.3 | |
| 20260506214017 | 55 | 0.0 | 0.0 | 0.02 | 0.74 | 0.74 | 91 | 1010.3 | |
| 20260506213017 | 55 | 0.0 | 1.0 | 0.01 | 0.73 | 0.73 | 90 | 1010.4 | |
| 20260506212016 | 56 | 0.0 | 1.0 | 0.00 | 0.72 | 0.72 | 90 | 1010.4 | |
| 20260506211016 | 56 | 0.0 | 0.0 | 0.00 | 0.71 | 0.71 | 89 | 1010.3 | |
| 20260506210017 | 56 | 0.0 | 0.0 | 0.00 | 0.71 | 0.71 | 89 | 1010.2 | |
| 20260506205036 | 56 | 0.0 | 0.0 | 0.00 | 0.71 | 0.71 | 88 | 1010.0 | |
| 20260506204016 | 56 | 0.0 | 0.0 | 0.00 | 0.71 | 0.71 | 88 | 1009.9 | |
| 20260506203036 | 56 | 0.0 | 0.0 | 0.00 | 0.71 | 0.71 | 87 | 1009.7 | |
| 20260506202037 | 56 | 0.0 | 0.0 | 0.00 | 0.71 | 0.71 | 86 | 1009.7 | |
| 20260506201017 | 57 | 0.0 | 0.0 | 0.00 | 0.71 | 0.71 | 86 | 1009.5 | |
| 20260506200017 | 57 | 0.0 | 0.0 | 0.00 | 0.71 | 0.71 | 86 | 1009.4 | |
| 20260506195037 | 57 | 0.0 | 0.0 | 0.00 | 0.71 | 0.71 | 86 | 1009.3 | |
| 20260506194016 | 57 | 0.0 | 0.0 | 0.00 | 0.71 | 0.71 | 86 | 1009.1 | |
| 20260506193017 | 57 | 0.0 | 0.0 | 0.00 | 0.71 | 0.71 | 87 | 1008.9 | |
| 20260506192016 | 57 | 0.0 | 0.0 | 0.00 | 0.71 | 0.71 | 86 | 1008.7 | |
| 20260506191016 | 57 | 0.0 | 0.0 | 0.00 | 0.71 | 0.71 | 85 | 1008.6 | |
| 20260506190018 | 57 | 0.0 | 0.0 | 0.00 | 0.71 | 0.71 | 85 | 1008.5 | |
| 20260506185017 | 58 | 0.0 | 0.0 | 0.00 | 0.71 | 0.71 | 84 | 1008.3 | |
| 20260506184016 | 58 | 0.0 | 0.0 | 0.00 | 0.71 | 0.71 | 82 | 1008.1 | |
| 20260506183016 | 58 | 0.0 | 1.0 | 0.00 | 0.71 | 0.71 | 81 | 1007.8 | |
| 20260506182036 | 59 | 0.0 | 1.0 | 0.00 | 0.71 | 0.71 | 81 | 1007.6 | |
| 20260506181016 | 59 | 0.0 | 1.0 | 0.00 | 0.71 | 0.71 | 81 | 1007.5 | |
| 20260506180016 | 59 | 0.0 | 0.0 | 0.00 | 0.71 | 0.71 | 80 | 1007.4 | |
| 20260506175037 | 59 | 0.0 | 1.0 | 0.00 | 0.71 | 0.71 | 79 | 1007.2 | |
| 20260506174016 | 60 | 45 | 1.0 | 4.0 | 0.00 | 0.71 | 0.71 | 78 | 1007.0 |
| 20260506173016 | 60 | 67 | 5.0 | 10.0 | 0.00 | 0.71 | 0.71 | 76 | 1006.8 |
| 20260506172017 | 62 | 67 | 8.0 | 15.0 | 0.00 | 0.71 | 0.71 | 75 | 1006.7 |
| 20260506171017 | 63 | 67 | 1.0 | 15.0 | 0.00 | 0.71 | 0.71 | 66 | 1006.5 |
| 20260506170017 | 64 | 0.0 | 2.0 | 0.00 | 0.71 | 0.71 | 62 | 1006.2 | |
| 20260506165016 | 64 | 0.0 | 5.0 | 0.00 | 0.71 | 0.71 | 67 | 1006.1 | |
| 20260506164016 | 63 | 67 | 2.0 | 5.0 | 0.00 | 0.71 | 0.71 | 70 | 1006.0 |
| 20260506163016 | 63 | 67 | 2.0 | 6.0 | 0.00 | 0.71 | 0.71 | 68 | 1005.9 |
| 20260506162016 | 63 | 0.0 | 3.0 | 0.00 | 0.71 | 0.71 | 68 | 1005.7 | |
| 20260506161016 | 63 | 0 | 2.0 | 6.0 | 0.00 | 0.71 | 0.71 | 70 | 1005.6 |
| 20260506160016 | 63 | 337 | 3.0 | 5.0 | 0.00 | 0.71 | 0.71 | 72 | 1005.6 |
| 20260506155017 | 62 | 337 | 2.0 | 8.0 | 0.00 | 0.71 | 0.71 | 73 | 1005.6 |
| 20260506154036 | 62 | 337 | 3.0 | 9.0 | 0.00 | 0.71 | 0.71 | 75 | 1005.8 |
| 20260506153016 | 61 | 337 | 4.0 | 8.0 | 0.00 | 0.71 | 0.71 | 72 | 1006.1 |
| 20260506152016 | 60 | 315 | 1.0 | 7.0 | 0.00 | 0.71 | 0.71 | 76 | 1006.2 |
| 20260506151017 | 59 | 315 | 2.0 | 7.0 | 0.00 | 0.71 | 0.71 | 78 | 1006.4 |
| 20260506150016 | 59 | 0 | 1.0 | 8.0 | 0.00 | 0.71 | 0.71 | 77 | 1006.6 |
| 20260506145016 | 60 | 337 | 3.0 | 7.0 | 0.00 | 0.71 | 0.71 | 75 | 1006.7 |
| 20260506144016 | 61 | 0 | 2.0 | 8.0 | 0.00 | 0.71 | 0.71 | 74 | 1006.4 |
| 20260506143016 | 61 | 315 | 1.0 | 6.0 | 0.00 | 0.71 | 0.71 | 66 | 1006.3 |
| 20260506142036 | 61 | 315 | 3.0 | 9.0 | 0.00 | 0.71 | 0.71 | 63 | 1006.5 |
| 20260506141016 | 63 | 270 | 2.0 | 10.0 | 0.00 | 0.71 | 0.71 | 69 | 1006.8 |
| 20260506140016 | 64 | 0.0 | 0.0 | 0.00 | 0.71 | 0.71 | 68 | 1006.7 | |
| 20260506135016 | 64 | 0.0 | 3.0 | 0.00 | 0.71 | 0.71 | 68 | 1006.6 | |
| 20260506134017 | 64 | 67 | 3.0 | 8.0 | 0.00 | 0.71 | 0.71 | 68 | 1006.6 |
| 20260506133016 | 63 | 45 | 2.0 | 8.0 | 0.00 | 0.71 | 0.71 | 70 | 1006.6 |
| 20260506132016 | 63 | 67 | 3.0 | 9.0 | 0.00 | 0.71 | 0.71 | 71 | 1006.6 |
| 20260506131016 | 63 | 67 | 4.0 | 9.0 | 0.00 | 0.71 | 0.71 | 71 | 1006.7 |
| 20260506130016 | 65 | 0.0 | 2.0 | 0.00 | 0.71 | 0.71 | 70 | 1006.7 | |
| 20260506125016 | 65 | 112 | 2.0 | 9.0 | 0.00 | 0.71 | 0.71 | 66 | 1006.7 |
| 20260506124016 | 65 | 90 | 1.0 | 8.0 | 0.00 | 0.71 | 0.71 | 67 | 1006.7 |
| 20260506123016 | 66 | 180 | 1.0 | 3.0 | 0.00 | 0.71 | 0.71 | 64 | 1006.8 |
| 20260506122016 | 64 | 90 | 1.0 | 6.0 | 0.00 | 0.71 | 0.71 | 65 | 1006.8 |
| 20260506121016 | 64 | 67 | 2.0 | 8.0 | 0.00 | 0.71 | 0.71 | 66 | 1006.8 |
| 20260506120016 | 66 | 157 | 1.0 | 5.0 | 0.00 | 0.71 | 0.71 | 63 | 1006.9 |
| 20260506115016 | 65 | 157 | 1.0 | 4.0 | 0.00 | 0.71 | 0.71 | 66 | 1007.0 |
| 20260506114016 | 65 | 135 | 2.0 | 6.0 | 0.00 | 0.71 | 0.71 | 66 | 1007.0 |
| 20260506113016 | 65 | 180 | 2.0 | 5.0 | 0.00 | 0.71 | 0.71 | 68 | 1006.8 |
| 20260506112016 | 64 | 0.0 | 4.0 | 0.00 | 0.71 | 0.71 | 72 | 1006.9 | |
| 20260506111016 | 63 | 0.0 | 3.0 | 0.00 | 0.71 | 0.71 | 74 | 1007.0 | |
| 20260506110016 | 62 | 0.0 | 4.0 | 0.00 | 0.71 | 0.71 | 80 | 1007.1 | |
| 20260506105036 | 60 | 135 | 1.0 | 5.0 | 0.00 | 0.71 | 0.71 | 80 | 1007.3 |
| 20260506104016 | 60 | 0.0 | 3.0 | 0.00 | 0.71 | 0.71 | 85 | 1007.3 | |
| 20260506103016 | 58 | 0.0 | 3.0 | 0.00 | 0.71 | 0.71 | 90 | 1007.2 | |
| 20260506102016 | 56 | 0.0 | 2.0 | 0.00 | 0.71 | 0.71 | 92 | 1007.1 | |
| 20260506101016 | 56 | 180 | 1.0 | 3.0 | 0.00 | 0.71 | 0.71 | 94 | 1007.0 |
| 20260506100016 | 55 | 225 | 1.0 | 4.0 | 0.01 | 0.71 | 0.71 | 94 | 1007.1 |
| 20260506095016 | 54 | 225 | 3.0 | 7.0 | 0.01 | 0.71 | 0.71 | 94 | 1007.1 |
| 20260506094016 | 54 | 247 | 2.0 | 5.0 | 0.02 | 0.71 | 0.71 | 96 | 1007.1 |
| 20260506093056 | 54 | 225 | 2.0 | 5.0 | 0.03 | 0.71 | 0.71 | 97 | 1007.1 |
| 20260506092016 | 53 | 247 | 2.0 | 5.0 | 0.04 | 0.71 | 0.71 | 96 | 1007.2 |
| 20260506091016 | 52 | 270 | 3.0 | 5.0 | 0.03 | 0.70 | 0.70 | 96 | 1007.4 |
| 20260506090016 | 52 | 247 | 3.0 | 5.0 | 0.06 | 0.70 | 0.70 | 96 | 1007.5 |
| 20260506085056 | 52 | 0.0 | 4.0 | 0.07 | 0.70 | 0.70 | 96 | 1007.5 | |
| 20260506084016 | 52 | 0.0 | 4.0 | 0.07 | 0.69 | 0.69 | 97 | 1007.5 | |
| 20260506083016 | 51 | 0.0 | 1.0 | 0.11 | 0.68 | 0.68 | 97 | 1007.7 | |
| 20260506082016 | 51 | 0 | 1.0 | 7.0 | 0.17 | 0.66 | 0.66 | 97 | 1007.7 |
| 20260506081016 | 51 | 0.0 | 0.0 | 0.19 | 0.66 | 0.66 | 97 | 1007.7 | |
| 20260506073016 | 51 | 0 | 1.0 | 7.0 | 0.18 | 0.57 | 0.57 | 97 | 1007.6 |
| 20260506072016 | 52 | 0.0 | 1.0 | 0.13 | 0.50 | 0.49 | 97 | 1007.8 | |
| 20260506071016 | 53 | 0.0 | 0.0 | 0.12 | 0.48 | 0.47 | 97 | 1007.6 | |
| 20260506062016 | 53 | 247 | 2.0 | 4.0 | 0.22 | 0.37 | 0.36 | 97 | 1007.8 |
| 20260506061036 | 53 | 0.0 | 0.0 | 0.21 | 0.36 | 0.34 | 97 | 1007.8 |